»·PEaware :: FFT990 KSEA-KGEG

FFT990 :: KSEA-KGEG

FLIGHT INFORMATION

Flight Status: Arrived
Operator:
Frontier Airlines
More flights by this operator :: More flights under this callsign
Pilot: Jamyson D. (13674)
Aircraft: AIRBUS A320
(A320)
More flights by this aircraft type
Origin: KSEA Seattle-Tacoma Intl
United States
Destination: KGEG Spokane Intl
United States
More flights between these airports :: More routes between these airports
Route: ZADON ZELAK ZIRAN ZOOMR ZOOMR1
File this flight plan on PilotEdge
Remarks:
Altitude:
(Current/Filed)
27,000ft
Speed:
(Current/Filed)
393kts
Departed: 11-Jan-18 06:51 PM
Arrived: 11-Jan-18 07:27 PM
Distance/Time
Traveled:
194nm/0:36
Distance/Time
To Go:
Arrived

Flight Plot

Page will automatically refresh every two minutes.


Map Options




Map Legend


Flown Route
Filed Route
Departure Airport
Arrival Airport
Navaid (VOR, NDB)
Fix

Horizontal Profiles

Position Reports

Time Latitude Longitude Heading Altitude Ground
Speed
11-Jan-18 18:29 47.446813 -122.304317 158 336ft 0kts
11-Jan-18 18:30 47.446813 -122.304317 158 336ft 0kts
11-Jan-18 18:31 47.446813 -122.304317 158 336ft 0kts
11-Jan-18 18:32 47.446813 -122.304317 158 336ft 0kts
11-Jan-18 18:33 47.446813 -122.304317 158 336ft 0kts
11-Jan-18 18:34 47.446813 -122.304317 158 336ft 0kts
11-Jan-18 18:35 47.446813 -122.304317 158 336ft 0kts
11-Jan-18 18:36 47.446813 -122.304317 158 336ft 0kts
11-Jan-18 18:37 47.446813 -122.304317 158 336ft 0kts
11-Jan-18 18:38 47.446813 -122.304317 158 336ft 0kts
11-Jan-18 18:39 47.446813 -122.304317 158 336ft 0kts
11-Jan-18 18:40 47.446813 -122.304317 158 336ft 0kts
11-Jan-18 18:41 47.446813 -122.304317 158 336ft 0kts
11-Jan-18 18:42 47.446813 -122.304317 158 336ft 0kts
11-Jan-18 18:43 47.446813 -122.304317 158 336ft 0kts
11-Jan-18 18:44 47.446813 -122.304317 158 336ft 0kts
11-Jan-18 18:45 47.446813 -122.304317 158 336ft 0kts
11-Jan-18 18:46 47.446813 -122.304317 158 336ft 0kts
11-Jan-18 18:47 47.446813 -122.304317 158 336ft 0kts
11-Jan-18 18:48 47.446813 -122.304317 159 336ft 0kts
11-Jan-18 18:49 47.447332 -122.304391 214 336ft 2kts
11-Jan-18 18:50 47.447443 -122.303648 305 336ft 0kts
11-Jan-18 18:51 47.447400 -122.303569 307 336ft 0kts
11-Jan-18 18:52 47.447536 -122.303829 308 336ft 2kts
11-Jan-18 18:53 47.448203 -122.305512 273 336ft 4kts
11-Jan-18 18:54 47.450898 -122.306248 1 336ft 23kts
11-Jan-18 18:55 47.456978 -122.306185 0 336ft 28kts
11-Jan-18 18:56 47.463519 -122.307603 220 336ft 21kts
11-Jan-18 18:57 47.437653 -122.308676 183 975ft 181kts
11-Jan-18 18:58 47.381053 -122.314358 180 3841ft 244kts
11-Jan-18 18:59 47.312491 -122.305586 150 7081ft 271kts
11-Jan-18 19:00 47.305036 -122.202630 53 10182ft 316kts
11-Jan-18 19:01 47.352445 -122.118213 49 11507ft 370kts
11-Jan-18 19:02 47.409032 -122.016954 49 12777ft 410kts
11-Jan-18 19:03 47.480066 -121.888429 49 14962ft 424kts
11-Jan-18 19:04 47.547911 -121.761815 58 16810ft 437kts
11-Jan-18 19:05 47.560335 -121.593286 92 18490ft 448kts
11-Jan-18 19:06 47.558045 -121.427002 91 19988ft 458kts
11-Jan-18 19:07 47.555753 -121.275249 92 21235ft 467kts
11-Jan-18 19:08 47.552931 -121.105642 92 22428ft 477kts
11-Jan-18 19:09 47.550014 -120.945195 92 23366ft 489kts
11-Jan-18 19:10 47.546204 -120.750973 92 24571ft 496kts
11-Jan-18 19:11 47.542006 -120.554370 92 25709ft 503kts
11-Jan-18 19:12 47.535898 -120.350812 94 26941ft 505kts
11-Jan-18 19:13 47.527807 -120.173871 94 27002ft 504kts
11-Jan-18 19:14 47.518036 -119.967136 94 27001ft 505kts
11-Jan-18 19:15 47.507770 -119.761804 94 26966ft 505kts
11-Jan-18 19:16 47.497345 -119.558270 94 26996ft 505kts
11-Jan-18 19:17 47.486522 -119.352887 94 25634ft 503kts
11-Jan-18 19:18 47.477004 -119.178549 95 22945ft 503kts
11-Jan-18 19:19 47.465712 -118.977420 96 20450ft 483kts
11-Jan-18 19:20 47.454794 -118.788233 96 19344ft 451kts
11-Jan-18 19:21 47.443672 -118.603161 94 16006ft 458kts
11-Jan-18 19:22 47.432459 -118.419844 94 13425ft 441kts
11-Jan-18 19:23 47.433966 -118.267780 71 11938ft 403kts
11-Jan-18 19:24 47.462762 -118.129275 68 10792ft 325kts
11-Jan-18 19:25 47.459844 -118.001293 96 9026ft 320kts
11-Jan-18 19:26 47.445330 -117.874206 95 7351ft 299kts
11-Jan-18 19:27 47.432552 -117.759559 94 5146ft 270kts
11-Jan-18 19:28 47.467920 -117.687924 15 5012ft 211kts
11-Jan-18 19:29 47.521573 -117.666160 15 4588ft 192kts
11-Jan-18 19:30 47.561852 -117.622816 44 3753ft 167kts
11-Jan-18 19:31 47.590016 -117.580352 45 2965ft 137kts
11-Jan-18 19:32 47.615150 -117.542485 45 2368ft 113kts
11-Jan-18 19:33 47.624764 -117.530680 2 2368ft 22kts
11-Jan-18 19:34 47.626173 -117.529895 43 2368ft 11kts
11-Jan-18 19:35 47.627112 -117.530388 316 2368ft 0kts
11-Jan-18 19:36 47.627112 -117.530388 316 2368ft 0kts
11-Jan-18 19:37 47.627112 -117.530388 316 2368ft 0kts
11-Jan-18 19:38 47.627112 -117.530388 316 2368ft 0kts
11-Jan-18 19:39 47.627112 -117.530388 316 2368ft 0kts
11-Jan-18 19:40 47.627112 -117.530388 316 2368ft 0kts
11-Jan-18 19:41 47.627112 -117.530388 316 2368ft 0kts
11-Jan-18 19:42 47.627112 -117.530388 316 2368ft 0kts
11-Jan-18 19:43 47.627112 -117.530388 316 2368ft 0kts
11-Jan-18 19:44 47.627112 -117.530388 316 2368ft 0kts
11-Jan-18 19:45 47.627112 -117.530388 316 2368ft 0kts
11-Jan-18 19:46 47.627112 -117.530388 316 2368ft 0kts
11-Jan-18 19:47 47.627112 -117.530388 316 2368ft 0kts

Navigation Log

Ident Type
1. KSEA Airport
2. ZADON Fix
3. ZELAK Fix
4. ZIRAN Fix
5. ZOOMR Fix
6. GANGS Fix
7. KNOCK Fix
8. KGEG Airport